sensor_id;sensor_type;location;lat;lon;timestamp;temperature;humidity
75621;DHT22;64574;48.506;-2.750;2023-03-05T00:01:15;6.10;61.40
75621;DHT22;64574;48.506;-2.750;2023-03-05T00:03:40;6.10;61.40
75621;DHT22;64574;48.506;-2.750;2023-03-05T00:06:07;6.10;61.60
75621;DHT22;64574;48.506;-2.750;2023-03-05T00:08:33;6.20;61.40
75621;DHT22;64574;48.506;-2.750;2023-03-05T00:11:02;6.10;61.50
75621;DHT22;64574;48.506;-2.750;2023-03-05T00:13:28;6.10;61.70
75621;DHT22;64574;48.506;-2.750;2023-03-05T00:15:53;6.00;61.90
75621;DHT22;64574;48.506;-2.750;2023-03-05T00:18:20;6.10;62.10
75621;DHT22;64574;48.506;-2.750;2023-03-05T00:20:46;6.10;62.00
75621;DHT22;64574;48.506;-2.750;2023-03-05T00:23:11;6.20;61.80
75621;DHT22;64574;48.506;-2.750;2023-03-05T00:25:37;6.20;61.80
75621;DHT22;64574;48.506;-2.750;2023-03-05T00:28:03;6.20;61.80
75621;DHT22;64574;48.506;-2.750;2023-03-05T00:30:31;6.20;61.80
75621;DHT22;64574;48.506;-2.750;2023-03-05T00:32:57;6.20;61.90
75621;DHT22;64574;48.506;-2.750;2023-03-05T00:35:23;6.20;61.80
75621;DHT22;64574;48.506;-2.750;2023-03-05T00:37:48;6.20;61.70
75621;DHT22;64574;48.506;-2.750;2023-03-05T00:40:14;6.30;61.60
75621;DHT22;64574;48.506;-2.750;2023-03-05T00:42:40;6.30;61.60
75621;DHT22;64574;48.506;-2.750;2023-03-05T00:45:07;6.20;61.50
75621;DHT22;64574;48.506;-2.750;2023-03-05T00:47:33;6.10;61.40
75621;DHT22;64574;48.506;-2.750;2023-03-05T00:49:59;6.10;61.50
75621;DHT22;64574;48.506;-2.750;2023-03-05T00:52:24;6.10;61.60
75621;DHT22;64574;48.506;-2.750;2023-03-05T00:54:50;6.10;61.60
75621;DHT22;64574;48.506;-2.750;2023-03-05T00:57:16;6.20;61.40
75621;DHT22;64574;48.506;-2.750;2023-03-05T00:59:41;6.20;61.50
75621;DHT22;64574;48.506;-2.750;2023-03-05T01:02:07;6.20;61.70
75621;DHT22;64574;48.506;-2.750;2023-03-05T01:04:33;6.20;61.60
75621;DHT22;64574;48.506;-2.750;2023-03-05T01:06:58;6.10;61.70
75621;DHT22;64574;48.506;-2.750;2023-03-05T01:09:24;6.20;61.70
75621;DHT22;64574;48.506;-2.750;2023-03-05T01:11:52;6.20;61.60
75621;DHT22;64574;48.506;-2.750;2023-03-05T01:14:19;6.20;61.80
75621;DHT22;64574;48.506;-2.750;2023-03-05T01:16:45;6.20;61.80
75621;DHT22;64574;48.506;-2.750;2023-03-05T01:19:12;6.20;61.80
75621;DHT22;64574;48.506;-2.750;2023-03-05T01:21:37;6.20;61.90
75621;DHT22;64574;48.506;-2.750;2023-03-05T01:24:04;6.20;61.60
75621;DHT22;64574;48.506;-2.750;2023-03-05T01:26:30;6.20;61.70
75621;DHT22;64574;48.506;-2.750;2023-03-05T01:28:55;6.20;61.70
75621;DHT22;64574;48.506;-2.750;2023-03-05T01:31:21;6.20;61.80
75621;DHT22;64574;48.506;-2.750;2023-03-05T01:33:47;6.20;61.70
75621;DHT22;64574;48.506;-2.750;2023-03-05T01:36:14;6.10;61.70
75621;DHT22;64574;48.506;-2.750;2023-03-05T01:38:42;6.10;61.80
75621;DHT22;64574;48.506;-2.750;2023-03-05T01:41:09;6.10;61.50
75621;DHT22;64574;48.506;-2.750;2023-03-05T01:43:35;6.10;61.60
75621;DHT22;64574;48.506;-2.750;2023-03-05T01:46:39;6.20;61.50
75621;DHT22;64574;48.506;-2.750;2023-03-05T01:49:12;6.10;61.60
75621;DHT22;64574;48.506;-2.750;2023-03-05T01:54:26;5.90;61.80
75621;DHT22;64574;48.506;-2.750;2023-03-05T01:56:54;6.00;61.80
75621;DHT22;64574;48.506;-2.750;2023-03-05T01:59:22;6.10;61.70
75621;DHT22;64574;48.506;-2.750;2023-03-05T02:01:52;5.90;62.00
75621;DHT22;64574;48.506;-2.750;2023-03-05T02:04:20;5.90;62.00
75621;DHT22;64574;48.506;-2.750;2023-03-05T02:06:48;6.00;62.10
75621;DHT22;64574;48.506;-2.750;2023-03-05T02:09:14;6.00;62.10
75621;DHT22;64574;48.506;-2.750;2023-03-05T02:11:40;6.00;62.10
75621;DHT22;64574;48.506;-2.750;2023-03-05T02:14:07;6.00;62.10
75621;DHT22;64574;48.506;-2.750;2023-03-05T02:16:33;6.00;62.10
75621;DHT22;64574;48.506;-2.750;2023-03-05T02:19:10;6.00;61.30
75621;DHT22;64574;48.506;-2.750;2023-03-05T02:21:44;6.10;61.00
75621;DHT22;64574;48.506;-2.750;2023-03-05T02:24:12;6.10;60.90
75621;DHT22;64574;48.506;-2.750;2023-03-05T02:26:38;5.90;61.00
75621;DHT22;64574;48.506;-2.750;2023-03-05T02:29:06;5.90;61.20
75621;DHT22;64574;48.506;-2.750;2023-03-05T02:31:33;6.00;60.70
75621;DHT22;64574;48.506;-2.750;2023-03-05T02:33:59;6.00;60.30
75621;DHT22;64574;48.506;-2.750;2023-03-05T02:36:25;5.80;60.40
75621;DHT22;64574;48.506;-2.750;2023-03-05T02:38:51;5.90;60.50
75621;DHT22;64574;48.506;-2.750;2023-03-05T02:41:18;6.00;60.30
75621;DHT22;64574;48.506;-2.750;2023-03-05T02:43:43;5.90;60.30
75621;DHT22;64574;48.506;-2.750;2023-03-05T02:46:09;5.90;60.70
75621;DHT22;64574;48.506;-2.750;2023-03-05T02:48:35;5.90;60.80
75621;DHT22;64574;48.506;-2.750;2023-03-05T02:51:02;5.90;61.00
75621;DHT22;64574;48.506;-2.750;2023-03-05T02:53:29;5.90;60.90
75621;DHT22;64574;48.506;-2.750;2023-03-05T02:55:54;6.10;60.80
75621;DHT22;64574;48.506;-2.750;2023-03-05T02:58:20;6.00;60.70
75621;DHT22;64574;48.506;-2.750;2023-03-05T03:00:45;6.00;61.00
75621;DHT22;64574;48.506;-2.750;2023-03-05T03:03:12;6.00;61.10
75621;DHT22;64574;48.506;-2.750;2023-03-05T03:05:37;6.00;61.30
75621;DHT22;64574;48.506;-2.750;2023-03-05T03:08:03;6.00;61.10
75621;DHT22;64574;48.506;-2.750;2023-03-05T03:10:29;6.00;61.30
75621;DHT22;64574;48.506;-2.750;2023-03-05T03:12:54;6.00;61.40
75621;DHT22;64574;48.506;-2.750;2023-03-05T03:15:20;6.00;61.30
75621;DHT22;64574;48.506;-2.750;2023-03-05T03:17:45;6.00;61.30
75621;DHT22;64574;48.506;-2.750;2023-03-05T03:20:13;6.00;61.40
75621;DHT22;64574;48.506;-2.750;2023-03-05T03:22:40;6.00;61.40
75621;DHT22;64574;48.506;-2.750;2023-03-05T03:25:07;5.90;61.40
75621;DHT22;64574;48.506;-2.750;2023-03-05T03:27:33;5.90;61.50
75621;DHT22;64574;48.506;-2.750;2023-03-05T03:29:58;6.00;61.30
75621;DHT22;64574;48.506;-2.750;2023-03-05T03:32:27;6.00;61.30
75621;DHT22;64574;48.506;-2.750;2023-03-05T03:34:53;6.00;61.20
75621;DHT22;64574;48.506;-2.750;2023-03-05T03:37:19;6.00;61.10
75621;DHT22;64574;48.506;-2.750;2023-03-05T03:39:44;6.00;61.20
75621;DHT22;64574;48.506;-2.750;2023-03-05T03:42:10;5.80;61.70
75621;DHT22;64574;48.506;-2.750;2023-03-05T03:44:36;5.70;61.90
75621;DHT22;64574;48.506;-2.750;2023-03-05T03:47:01;5.80;61.80
75621;DHT22;64574;48.506;-2.750;2023-03-05T03:49:27;5.90;61.80
75621;DHT22;64574;48.506;-2.750;2023-03-05T03:51:53;6.00;61.50
75621;DHT22;64574;48.506;-2.750;2023-03-05T03:54:19;5.90;61.60
75621;DHT22;64574;48.506;-2.750;2023-03-05T03:56:45;5.90;61.60
75621;DHT22;64574;48.506;-2.750;2023-03-05T03:59:11;5.90;61.50
75621;DHT22;64574;48.506;-2.750;2023-03-05T04:01:37;5.90;61.70
75621;DHT22;64574;48.506;-2.750;2023-03-05T04:04:04;5.90;61.70
75621;DHT22;64574;48.506;-2.750;2023-03-05T04:06:30;5.90;61.90
75621;DHT22;64574;48.506;-2.750;2023-03-05T04:08:56;5.80;62.00
75621;DHT22;64574;48.506;-2.750;2023-03-05T04:11:22;5.90;61.70
75621;DHT22;64574;48.506;-2.750;2023-03-05T04:13:48;5.90;61.70
75621;DHT22;64574;48.506;-2.750;2023-03-05T04:16:14;5.90;61.70
75621;DHT22;64574;48.506;-2.750;2023-03-05T04:18:40;5.90;61.50
75621;DHT22;64574;48.506;-2.750;2023-03-05T04:21:06;5.90;61.20
75621;DHT22;64574;48.506;-2.750;2023-03-05T04:23:32;5.80;61.40
75621;DHT22;64574;48.506;-2.750;2023-03-05T04:25:58;5.90;61.40
75621;DHT22;64574;48.506;-2.750;2023-03-05T04:28:24;5.90;61.40
75621;DHT22;64574;48.506;-2.750;2023-03-05T04:30:49;5.90;61.30
75621;DHT22;64574;48.506;-2.750;2023-03-05T04:33:15;5.90;61.20
75621;DHT22;64574;48.506;-2.750;2023-03-05T04:35:41;5.90;61.20
75621;DHT22;64574;48.506;-2.750;2023-03-05T04:38:06;5.90;61.10
75621;DHT22;64574;48.506;-2.750;2023-03-05T04:40:32;5.90;61.10
75621;DHT22;64574;48.506;-2.750;2023-03-05T04:42:58;5.80;61.00
75621;DHT22;64574;48.506;-2.750;2023-03-05T04:45:24;5.80;61.00
75621;DHT22;64574;48.506;-2.750;2023-03-05T04:47:49;5.80;60.80
75621;DHT22;64574;48.506;-2.750;2023-03-05T04:50:15;5.80;61.10
75621;DHT22;64574;48.506;-2.750;2023-03-05T04:52:43;5.90;60.90
75621;DHT22;64574;48.506;-2.750;2023-03-05T04:55:10;5.90;60.70
75621;DHT22;64574;48.506;-2.750;2023-03-05T04:57:35;5.90;60.60
75621;DHT22;64574;48.506;-2.750;2023-03-05T05:00:03;5.90;60.60
75621;DHT22;64574;48.506;-2.750;2023-03-05T05:02:31;5.90;60.60
75621;DHT22;64574;48.506;-2.750;2023-03-05T05:04:57;5.90;60.60
75621;DHT22;64574;48.506;-2.750;2023-03-05T05:07:23;5.90;60.80
75621;DHT22;64574;48.506;-2.750;2023-03-05T05:09:48;5.90;60.80
75621;DHT22;64574;48.506;-2.750;2023-03-05T05:12:14;5.90;60.70
75621;DHT22;64574;48.506;-2.750;2023-03-05T05:14:40;6.00;60.80
75621;DHT22;64574;48.506;-2.750;2023-03-05T05:17:05;5.90;60.80
75621;DHT22;64574;48.506;-2.750;2023-03-05T05:19:32;5.90;61.00
75621;DHT22;64574;48.506;-2.750;2023-03-05T05:21:58;5.90;61.20
75621;DHT22;64574;48.506;-2.750;2023-03-05T05:24:23;5.90;61.10
75621;DHT22;64574;48.506;-2.750;2023-03-05T05:26:49;5.90;61.20
75621;DHT22;64574;48.506;-2.750;2023-03-05T05:29:15;5.90;61.10
75621;DHT22;64574;48.506;-2.750;2023-03-05T05:31:41;5.90;61.00
75621;DHT22;64574;48.506;-2.750;2023-03-05T05:34:07;5.90;61.10
75621;DHT22;64574;48.506;-2.750;2023-03-05T05:36:32;6.00;60.80
75621;DHT22;64574;48.506;-2.750;2023-03-05T05:38:58;6.00;60.70
75621;DHT22;64574;48.506;-2.750;2023-03-05T05:41:24;6.00;60.70
75621;DHT22;64574;48.506;-2.750;2023-03-05T05:43:49;5.90;60.90
75621;DHT22;64574;48.506;-2.750;2023-03-05T05:46:17;6.00;61.00
75621;DHT22;64574;48.506;-2.750;2023-03-05T05:48:44;5.90;61.10
75621;DHT22;64574;48.506;-2.750;2023-03-05T05:51:13;6.00;61.00
75621;DHT22;64574;48.506;-2.750;2023-03-05T05:53:41;6.00;61.20
75621;DHT22;64574;48.506;-2.750;2023-03-05T05:56:08;5.90;61.50
75621;DHT22;64574;48.506;-2.750;2023-03-05T05:58:36;6.00;61.40
75621;DHT22;64574;48.506;-2.750;2023-03-05T06:01:02;5.90;61.40
75621;DHT22;64574;48.506;-2.750;2023-03-05T06:03:27;5.90;61.30
75621;DHT22;64574;48.506;-2.750;2023-03-05T06:05:53;5.90;61.40
75621;DHT22;64574;48.506;-2.750;2023-03-05T06:08:20;5.80;61.60
75621;DHT22;64574;48.506;-2.750;2023-03-05T06:10:53;5.90;61.60
75621;DHT22;64574;48.506;-2.750;2023-03-05T06:13:19;5.90;61.80
75621;DHT22;64574;48.506;-2.750;2023-03-05T06:15:44;5.90;61.90
75621;DHT22;64574;48.506;-2.750;2023-03-05T06:18:10;5.90;62.00
75621;DHT22;64574;48.506;-2.750;2023-03-05T06:20:35;5.80;62.20
75621;DHT22;64574;48.506;-2.750;2023-03-05T06:23:01;5.80;62.40
75621;DHT22;64574;48.506;-2.750;2023-03-05T06:25:26;5.70;62.60
75621;DHT22;64574;48.506;-2.750;2023-03-05T06:27:52;5.80;62.60
75621;DHT22;64574;48.506;-2.750;2023-03-05T06:30:18;5.70;62.40
75621;DHT22;64574;48.506;-2.750;2023-03-05T06:32:43;5.80;62.50
75621;DHT22;64574;48.506;-2.750;2023-03-05T06:35:09;5.80;62.40
75621;DHT22;64574;48.506;-2.750;2023-03-05T06:37:34;5.90;62.20
75621;DHT22;64574;48.506;-2.750;2023-03-05T06:40:00;5.80;62.20
75621;DHT22;64574;48.506;-2.750;2023-03-05T06:42:25;5.80;62.40
75621;DHT22;64574;48.506;-2.750;2023-03-05T06:44:51;5.70;62.60
75621;DHT22;64574;48.506;-2.750;2023-03-05T06:47:17;5.80;62.60
75621;DHT22;64574;48.506;-2.750;2023-03-05T06:49:42;5.80;62.60
75621;DHT22;64574;48.506;-2.750;2023-03-05T06:52:09;5.80;62.70
75621;DHT22;64574;48.506;-2.750;2023-03-05T06:54:35;5.70;63.00
75621;DHT22;64574;48.506;-2.750;2023-03-05T06:57:00;5.60;63.20
75621;DHT22;64574;48.506;-2.750;2023-03-05T06:59:26;5.60;63.00
75621;DHT22;64574;48.506;-2.750;2023-03-05T07:01:52;5.70;62.90
75621;DHT22;64574;48.506;-2.750;2023-03-05T07:04:18;5.80;62.90
75621;DHT22;64574;48.506;-2.750;2023-03-05T07:06:43;5.70;62.60
75621;DHT22;64574;48.506;-2.750;2023-03-05T07:09:14;5.80;62.20
75621;DHT22;64574;48.506;-2.750;2023-03-05T07:11:40;5.70;62.10
75621;DHT22;64574;48.506;-2.750;2023-03-05T07:14:06;5.70;62.40
75621;DHT22;64574;48.506;-2.750;2023-03-05T07:16:33;5.70;62.40
75621;DHT22;64574;48.506;-2.750;2023-03-05T07:19:00;5.70;62.30
75621;DHT22;64574;48.506;-2.750;2023-03-05T07:21:29;5.70;62.10
75621;DHT22;64574;48.506;-2.750;2023-03-05T07:23:57;5.70;62.10
75621;DHT22;64574;48.506;-2.750;2023-03-05T07:26:23;5.70;62.00
75621;DHT22;64574;48.506;-2.750;2023-03-05T07:28:49;5.70;62.00
75621;DHT22;64574;48.506;-2.750;2023-03-05T07:31:18;5.70;62.30
75621;DHT22;64574;48.506;-2.750;2023-03-05T07:33:48;5.70;62.40
75621;DHT22;64574;48.506;-2.750;2023-03-05T07:36:14;5.70;62.50
75621;DHT22;64574;48.506;-2.750;2023-03-05T07:38:40;5.80;61.70
75621;DHT22;64574;48.506;-2.750;2023-03-05T07:41:11;5.80;61.40
75621;DHT22;64574;48.506;-2.750;2023-03-05T07:43:37;5.80;61.40
75621;DHT22;64574;48.506;-2.750;2023-03-05T07:46:05;5.80;61.40
75621;DHT22;64574;48.506;-2.750;2023-03-05T07:48:31;5.80;61.30
75621;DHT22;64574;48.506;-2.750;2023-03-05T07:51:02;5.80;61.50
75621;DHT22;64574;48.506;-2.750;2023-03-05T07:53:27;5.80;61.70
75621;DHT22;64574;48.506;-2.750;2023-03-05T07:55:53;5.80;61.80
75621;DHT22;64574;48.506;-2.750;2023-03-05T07:58:19;5.80;61.90
75621;DHT22;64574;48.506;-2.750;2023-03-05T08:00:44;5.80;61.70
75621;DHT22;64574;48.506;-2.750;2023-03-05T08:03:10;5.80;61.80
75621;DHT22;64574;48.506;-2.750;2023-03-05T08:05:38;5.80;61.60
75621;DHT22;64574;48.506;-2.750;2023-03-05T08:08:05;5.80;61.50
75621;DHT22;64574;48.506;-2.750;2023-03-05T08:10:30;5.80;61.10
75621;DHT22;64574;48.506;-2.750;2023-03-05T08:12:56;5.80;60.80
75621;DHT22;64574;48.506;-2.750;2023-03-05T08:15:22;5.80;60.90
75621;DHT22;64574;48.506;-2.750;2023-03-05T08:17:47;5.80;60.80
75621;DHT22;64574;48.506;-2.750;2023-03-05T08:20:13;5.90;60.80
75621;DHT22;64574;48.506;-2.750;2023-03-05T08:22:39;5.90;60.90
75621;DHT22;64574;48.506;-2.750;2023-03-05T08:25:05;5.90;60.80
75621;DHT22;64574;48.506;-2.750;2023-03-05T08:27:31;5.90;60.40
75621;DHT22;64574;48.506;-2.750;2023-03-05T08:29:57;6.00;60.10
75621;DHT22;64574;48.506;-2.750;2023-03-05T08:32:23;6.00;59.80
75621;DHT22;64574;48.506;-2.750;2023-03-05T08:34:48;5.90;60.10
75621;DHT22;64574;48.506;-2.750;2023-03-05T08:37:14;5.90;59.90
75621;DHT22;64574;48.506;-2.750;2023-03-05T08:39:40;5.90;60.10
75621;DHT22;64574;48.506;-2.750;2023-03-05T08:42:05;5.90;60.10
75621;DHT22;64574;48.506;-2.750;2023-03-05T08:44:31;5.80;60.20
75621;DHT22;64574;48.506;-2.750;2023-03-05T08:46:57;5.90;60.20
75621;DHT22;64574;48.506;-2.750;2023-03-05T08:49:22;5.90;60.10
75621;DHT22;64574;48.506;-2.750;2023-03-05T08:51:48;5.90;60.30
75621;DHT22;64574;48.506;-2.750;2023-03-05T08:54:13;5.90;60.10
75621;DHT22;64574;48.506;-2.750;2023-03-05T08:56:39;5.90;59.80
75621;DHT22;64574;48.506;-2.750;2023-03-05T08:59:05;5.90;59.80
75621;DHT22;64574;48.506;-2.750;2023-03-05T09:01:31;5.90;59.90
75621;DHT22;64574;48.506;-2.750;2023-03-05T09:04:00;5.90;59.60
75621;DHT22;64574;48.506;-2.750;2023-03-05T09:06:26;5.90;59.40
75621;DHT22;64574;48.506;-2.750;2023-03-05T09:08:52;5.90;59.50
75621;DHT22;64574;48.506;-2.750;2023-03-05T09:11:17;5.90;59.70
75621;DHT22;64574;48.506;-2.750;2023-03-05T09:13:43;5.90;59.80
75621;DHT22;64574;48.506;-2.750;2023-03-05T09:16:14;5.90;59.60
75621;DHT22;64574;48.506;-2.750;2023-03-05T09:18:40;5.90;59.50
75621;DHT22;64574;48.506;-2.750;2023-03-05T09:21:09;5.90;59.50
75621;DHT22;64574;48.506;-2.750;2023-03-05T09:23:35;5.90;59.50
75621;DHT22;64574;48.506;-2.750;2023-03-05T09:26:00;6.00;59.70
75621;DHT22;64574;48.506;-2.750;2023-03-05T09:28:26;6.00;59.70
75621;DHT22;64574;48.506;-2.750;2023-03-05T09:30:52;6.00;59.70
75621;DHT22;64574;48.506;-2.750;2023-03-05T09:33:18;6.00;59.20
75621;DHT22;64574;48.506;-2.750;2023-03-05T09:35:43;6.00;59.10
75621;DHT22;64574;48.506;-2.750;2023-03-05T09:38:09;6.00;59.10
75621;DHT22;64574;48.506;-2.750;2023-03-05T09:40:53;6.00;59.10
75621;DHT22;64574;48.506;-2.750;2023-03-05T09:43:43;6.00;59.20
75621;DHT22;64574;48.506;-2.750;2023-03-05T09:48:55;6.00;59.00
75621;DHT22;64574;48.506;-2.750;2023-03-05T09:51:28;6.00;59.50
75621;DHT22;64574;48.506;-2.750;2023-03-05T09:54:18;6.00;59.40
75621;DHT22;64574;48.506;-2.750;2023-03-05T09:56:52;6.00;59.20
75621;DHT22;64574;48.506;-2.750;2023-03-05T10:01:56;6.10;58.70
75621;DHT22;64574;48.506;-2.750;2023-03-05T10:04:46;6.10;58.70
75621;DHT22;64574;48.506;-2.750;2023-03-05T10:07:23;6.00;59.20
75621;DHT22;64574;48.506;-2.750;2023-03-05T10:10:08;6.00;59.30
75621;DHT22;64574;48.506;-2.750;2023-03-05T10:12:44;6.00;59.30
75621;DHT22;64574;48.506;-2.750;2023-03-05T10:20:48;6.10;59.20
75621;DHT22;64574;48.506;-2.750;2023-03-05T10:28:36;6.20;58.90
75621;DHT22;64574;48.506;-2.750;2023-03-05T10:37:00;6.20;58.90
75621;DHT22;64574;48.506;-2.750;2023-03-05T10:42:41;6.30;58.70
75621;DHT22;64574;48.506;-2.750;2023-03-05T10:45:14;6.30;58.70
75621;DHT22;64574;48.506;-2.750;2023-03-05T10:47:43;6.30;58.50
75621;DHT22;64574;48.506;-2.750;2023-03-05T10:50:30;6.30;58.50
75621;DHT22;64574;48.506;-2.750;2023-03-05T10:53:31;6.30;58.70
75621;DHT22;64574;48.506;-2.750;2023-03-05T10:56:05;6.20;59.10
75621;DHT22;64574;48.506;-2.750;2023-03-05T10:58:31;6.20;58.80
75621;DHT22;64574;48.506;-2.750;2023-03-05T11:06:12;6.30;58.50
75621;DHT22;64574;48.506;-2.750;2023-03-05T11:08:38;6.40;58.10
75621;DHT22;64574;48.506;-2.750;2023-03-05T11:11:11;6.40;58.00
75621;DHT22;64574;48.506;-2.750;2023-03-05T11:13:52;6.40;58.30
75621;DHT22;64574;48.506;-2.750;2023-03-05T11:16:30;6.40;58.10
75621;DHT22;64574;48.506;-2.750;2023-03-05T11:22:17;6.50;57.80
75621;DHT22;64574;48.506;-2.750;2023-03-05T11:25:12;6.40;58.10
75621;DHT22;64574;48.506;-2.750;2023-03-05T11:27:50;6.40;58.10
75621;DHT22;64574;48.506;-2.750;2023-03-05T11:30:24;6.30;58.00
75621;DHT22;64574;48.506;-2.750;2023-03-05T11:33:15;6.40;58.20
75621;DHT22;64574;48.506;-2.750;2023-03-05T11:35:45;6.40;58.00
75621;DHT22;64574;48.506;-2.750;2023-03-05T11:38:23;6.40;57.90
75621;DHT22;64574;48.506;-2.750;2023-03-05T11:40:51;6.40;57.80
75621;DHT22;64574;48.506;-2.750;2023-03-05T11:43:19;6.50;57.40
75621;DHT22;64574;48.506;-2.750;2023-03-05T11:45:50;6.50;57.50
75621;DHT22;64574;48.506;-2.750;2023-03-05T11:48:23;6.50;57.70
75621;DHT22;64574;48.506;-2.750;2023-03-05T11:50:58;6.50;57.80
75621;DHT22;64574;48.506;-2.750;2023-03-05T11:53:30;6.60;57.50
75621;DHT22;64574;48.506;-2.750;2023-03-05T11:56:23;6.50;57.60
75621;DHT22;64574;48.506;-2.750;2023-03-05T11:59:02;6.60;57.50
75621;DHT22;64574;48.506;-2.750;2023-03-05T12:01:30;6.50;57.60
75621;DHT22;64574;48.506;-2.750;2023-03-05T12:03:57;6.60;57.60
75621;DHT22;64574;48.506;-2.750;2023-03-05T12:06:33;6.60;57.10
75621;DHT22;64574;48.506;-2.750;2023-03-05T12:09:06;6.60;57.10
75621;DHT22;64574;48.506;-2.750;2023-03-05T12:11:32;6.60;57.30
75621;DHT22;64574;48.506;-2.750;2023-03-05T12:14:20;6.70;57.20
75621;DHT22;64574;48.506;-2.750;2023-03-05T12:19:44;6.80;57.00
75621;DHT22;64574;48.506;-2.750;2023-03-05T12:22:22;6.70;56.80
75621;DHT22;64574;48.506;-2.750;2023-03-05T12:24:49;6.70;56.80
75621;DHT22;64574;48.506;-2.750;2023-03-05T12:27:30;6.80;56.70
75621;DHT22;64574;48.506;-2.750;2023-03-05T12:29:56;6.90;56.60
75621;DHT22;64574;48.506;-2.750;2023-03-05T12:35:25;6.80;56.90
75621;DHT22;64574;48.506;-2.750;2023-03-05T12:40:33;6.80;57.10
75621;DHT22;64574;48.506;-2.750;2023-03-05T12:43:05;6.90;57.20
75621;DHT22;64574;48.506;-2.750;2023-03-05T12:45:38;6.80;57.00
75621;DHT22;64574;48.506;-2.750;2023-03-05T12:55:33;6.80;57.30
75621;DHT22;64574;48.506;-2.750;2023-03-05T12:58:18;6.80;57.30
75621;DHT22;64574;48.506;-2.750;2023-03-05T13:00:57;6.80;57.40
75621;DHT22;64574;48.506;-2.750;2023-03-05T13:03:32;6.90;57.20
75621;DHT22;64574;48.506;-2.750;2023-03-05T13:05:58;6.80;57.40
75621;DHT22;64574;48.506;-2.750;2023-03-05T13:08:32;6.90;57.20
75621;DHT22;64574;48.506;-2.750;2023-03-05T13:11:08;6.90;57.20
75621;DHT22;64574;48.506;-2.750;2023-03-05T13:13:42;7.00;57.10
75621;DHT22;64574;48.506;-2.750;2023-03-05T13:16:21;7.00;56.80
75621;DHT22;64574;48.506;-2.750;2023-03-05T13:18:48;7.00;56.50
75621;DHT22;64574;48.506;-2.750;2023-03-05T13:21:16;7.20;56.40
75621;DHT22;64574;48.506;-2.750;2023-03-05T13:24:02;7.20;56.20
75621;DHT22;64574;48.506;-2.750;2023-03-05T13:26:29;7.20;56.60
75621;DHT22;64574;48.506;-2.750;2023-03-05T13:37:00;7.20;56.60
75621;DHT22;64574;48.506;-2.750;2023-03-05T13:39:42;7.10;56.40
75621;DHT22;64574;48.506;-2.750;2023-03-05T13:44:41;7.00;56.50
75621;DHT22;64574;48.506;-2.750;2023-03-05T13:47:19;7.00;56.50
75621;DHT22;64574;48.506;-2.750;2023-03-05T13:49:46;7.20;56.20
75621;DHT22;64574;48.506;-2.750;2023-03-05T13:52:26;7.10;56.20
75621;DHT22;64574;48.506;-2.750;2023-03-05T13:54:52;7.00;56.50
75621;DHT22;64574;48.506;-2.750;2023-03-05T13:57:40;7.00;56.60
75621;DHT22;64574;48.506;-2.750;2023-03-05T14:03:07;7.00;56.40
75621;DHT22;64574;48.506;-2.750;2023-03-05T14:05:34;7.10;56.60
75621;DHT22;64574;48.506;-2.750;2023-03-05T14:08:00;7.00;56.70
75621;DHT22;64574;48.506;-2.750;2023-03-05T14:10:33;7.00;57.20
75621;DHT22;64574;48.506;-2.750;2023-03-05T14:13:05;7.00;56.90
75621;DHT22;64574;48.506;-2.750;2023-03-05T14:15:36;7.00;56.70
75621;DHT22;64574;48.506;-2.750;2023-03-05T14:20:33;7.00;56.50
75621;DHT22;64574;48.506;-2.750;2023-03-05T14:23:00;7.00;56.50
75621;DHT22;64574;48.506;-2.750;2023-03-05T14:25:37;7.00;57.00
75621;DHT22;64574;48.506;-2.750;2023-03-05T14:28:27;7.00;57.00
75621;DHT22;64574;48.506;-2.750;2023-03-05T14:30:54;6.70;57.60
75621;DHT22;64574;48.506;-2.750;2023-03-05T14:33:26;6.60;58.00
75621;DHT22;64574;48.506;-2.750;2023-03-05T14:35:53;6.80;58.00
75621;DHT22;64574;48.506;-2.750;2023-03-05T14:38:29;6.80;57.90
75621;DHT22;64574;48.506;-2.750;2023-03-05T14:40:55;6.90;57.90
75621;DHT22;64574;48.506;-2.750;2023-03-05T14:43:21;7.00;57.30
75621;DHT22;64574;48.506;-2.750;2023-03-05T14:45:47;7.00;57.40
75621;DHT22;64574;48.506;-2.750;2023-03-05T14:48:15;6.90;57.80
75621;DHT22;64574;48.506;-2.750;2023-03-05T14:50:48;6.60;58.70
75621;DHT22;64574;48.506;-2.750;2023-03-05T14:53:24;6.70;59.00
75621;DHT22;64574;48.506;-2.750;2023-03-05T14:55:53;6.70;58.90
75621;DHT22;64574;48.506;-2.750;2023-03-05T14:58:25;6.60;59.30
75621;DHT22;64574;48.506;-2.750;2023-03-05T15:00:52;6.80;59.10
75621;DHT22;64574;48.506;-2.750;2023-03-05T15:03:19;6.50;60.00
75621;DHT22;64574;48.506;-2.750;2023-03-05T15:05:48;6.60;60.10
75621;DHT22;64574;48.506;-2.750;2023-03-05T15:08:19;6.70;60.10
75621;DHT22;64574;48.506;-2.750;2023-03-05T15:10:46;6.50;60.50
75621;DHT22;64574;48.506;-2.750;2023-03-05T15:13:13;6.50;61.20
75621;DHT22;64574;48.506;-2.750;2023-03-05T15:15:41;6.30;63.90
75621;DHT22;64574;48.506;-2.750;2023-03-05T15:18:11;6.10;66.30
75621;DHT22;64574;48.506;-2.750;2023-03-05T15:20:37;6.00;67.30
75621;DHT22;64574;48.506;-2.750;2023-03-05T15:23:04;6.10;67.90
75621;DHT22;64574;48.506;-2.750;2023-03-05T15:25:30;5.80;69.30
75621;DHT22;64574;48.506;-2.750;2023-03-05T15:27:56;5.90;69.50
75621;DHT22;64574;48.506;-2.750;2023-03-05T15:30:36;5.80;69.90
75621;DHT22;64574;48.506;-2.750;2023-03-05T15:33:07;5.90;70.00
75621;DHT22;64574;48.506;-2.750;2023-03-05T15:35:33;5.80;70.50
75621;DHT22;64574;48.506;-2.750;2023-03-05T15:37:59;5.80;70.50
75621;DHT22;64574;48.506;-2.750;2023-03-05T15:40:25;5.60;71.00
75621;DHT22;64574;48.506;-2.750;2023-03-05T15:42:52;5.80;71.10
75621;DHT22;64574;48.506;-2.750;2023-03-05T15:45:18;6.10;70.40
75621;DHT22;64574;48.506;-2.750;2023-03-05T15:47:46;6.10;70.20
75621;DHT22;64574;48.506;-2.750;2023-03-05T15:50:12;6.00;70.10
75621;DHT22;64574;48.506;-2.750;2023-03-05T15:52:38;5.90;70.30
75621;DHT22;64574;48.506;-2.750;2023-03-05T15:55:04;5.80;70.70
75621;DHT22;64574;48.506;-2.750;2023-03-05T15:57:34;5.80;70.90
75621;DHT22;64574;48.506;-2.750;2023-03-05T16:00:00;5.90;70.90
75621;DHT22;64574;48.506;-2.750;2023-03-05T16:02:26;5.90;70.50
75621;DHT22;64574;48.506;-2.750;2023-03-05T16:04:51;5.80;71.00
75621;DHT22;64574;48.506;-2.750;2023-03-05T16:07:17;5.80;71.20
75621;DHT22;64574;48.506;-2.750;2023-03-05T16:09:48;5.80;70.90
75621;DHT22;64574;48.506;-2.750;2023-03-05T16:12:35;5.80;70.90
75621;DHT22;64574;48.506;-2.750;2023-03-05T16:15:09;5.70;71.20
75621;DHT22;64574;48.506;-2.750;2023-03-05T16:17:36;5.90;70.70
75621;DHT22;64574;48.506;-2.750;2023-03-05T16:20:04;5.80;70.50
75621;DHT22;64574;48.506;-2.750;2023-03-05T16:22:30;5.80;70.50
75621;DHT22;64574;48.506;-2.750;2023-03-05T16:24:55;5.90;70.20
75621;DHT22;64574;48.506;-2.750;2023-03-05T16:27:22;6.00;69.80
75621;DHT22;64574;48.506;-2.750;2023-03-05T16:29:48;5.80;70.20
75621;DHT22;64574;48.506;-2.750;2023-03-05T16:32:15;5.70;70.90
75621;DHT22;64574;48.506;-2.750;2023-03-05T16:34:42;5.90;70.60
75621;DHT22;64574;48.506;-2.750;2023-03-05T16:37:07;5.80;70.60
75621;DHT22;64574;48.506;-2.750;2023-03-05T16:39:33;5.80;70.30
75621;DHT22;64574;48.506;-2.750;2023-03-05T16:41:59;5.80;70.30
75621;DHT22;64574;48.506;-2.750;2023-03-05T16:44:24;5.80;70.10
75621;DHT22;64574;48.506;-2.750;2023-03-05T16:46:50;5.80;70.50